Advance, Indiana
Current Conditions -  °F | °C
As of 8:55 PM on Saturday 22 Nov 2014 (Local Time) from KFKR Reporting Station
Overcast Overcast  
Wind Chill: 50°   Ceiling: 3300
Heat Index: 50°   Visibility: 10mi
Dew Point: 43°   Wind: 7mph
Humidity: 75%   Direction: 160°SSE
Pressure: 30"   Gusts: NA
Location:  40°N, 86.62°W
Report Text: KFKR 230155Z AUTO 16006KT 10SM OVC033 10/06 A3000 RMK AO2 T01020060
Loading
Personal Weather Stations






























Interactive Weather Map New forecast layout! Learn more

10-Day Weather Forecast

Advertisements
Track Severe Weather on mobile